Terminal Aerodrome Forecast
Issued by NWS

Home | Current Version | Previous Version | Text Only | Print | Product List | Glossary On
Versions: 1 2 3 4 5 6 7 8 9 10 11 12 13
875
FTUS45 KPIH 201355 AAA
TAFSUN
TAF AMD
KSUN 201355Z 2014/2118 32011KT P6SM VCSH SCT100
     FM201700 16009KT P6SM FEW120
     FM202100 23010G20KT P6SM SKC
     FM210300 32011KT P6SM SKC=

USA.gov is the U.S. government's official web portal to all federal, state and local government web resources and services.